Peasleeville, New York
Current Conditions -  °F | °C
As of 10:53 AM on Monday 24 Nov 2014 (Local Time) from KPBG Reporting Station
Broken Clouds Broken Clouds  
Wind Chill: 55°   Ceiling: 12000
Heat Index: 55°   Visibility: 10mi
Dew Point: 52°   Wind: 18mph
Humidity: 89%   Direction: 150°SSE
Pressure: 29.44"   Gusts: NA
Location:  44.5605°N, 73.7592°W
Report Text: KPBG 241553Z AUTO 15016KT 10SM FEW050 BKN120 13/11 A2944 RMK AO2 SLP972 T01280111
Loading
Personal Weather Stations






























Interactive Weather Map New forecast layout! Learn more

10-Day Weather Forecast

Advertisements
Track Severe Weather on mobile